Aérodrome :
LOGIN :

S'inscrire | Disclaimer

   EN    FR    IT 

 










Légende :    VFR   VFR Marginal   IFR   IFR Intensif   IFR Très Intensif
Visi : 
Plafond : 
>= 8 km
>= 3000ft
5 à 8 km
1000 à 3000 ft
1500m à 5 km
500 à 1000 ft
800 à 1500m
200 à 500 ft
< 800m
< 200 ft
Symboles :   Orages  Brouillard  Fortes neiges  Fortes précipitations  Vent > 20 kt
SIGMETs :   Divers  Orages  Givrage  Turbulence  Onde Orograph.  Cendres Volcan.







- Altitude de l'aérodrome : 1234 ft
- Code IATA : LUX


ELLX - Luxembourg Findel

DERNIER METAR :
  • 170520Z 27010KT 9999 -RA SCT007 BKN013 04/03 Q1004 NOSIG

METARs EXPIRÉS :
  • 170450Z 25012KT 5000 RA FEW005 BKN007 04/04 Q1004 NOSIG
  • 170420Z 23008KT 200V260 6000 -RA BKN005 04/04 Q1004 NOSIG
  • 170350Z 22008KT 8000 -RA SCT005 BKN007 04/03 Q1004 NOSIG
  • 170320Z 22010KT 190V250 8000 -RA SCT004 BKN007 04/03 Q1004 NOSIG
  • 170250Z 22010KT 5000 -RA BR FEW004 BKN007 04/03 Q1005 NOSIG

TAF TAF ELLX
Valide du 17 à 06h jusqu'au 18 à 12h UTC


170500Z 1706/1812 25012KT 9999 SCT006 BKN012
TEMPO 1706/1707 4000 RA BR BKN005
BECMG 1707/1709 9999 NSW SCT025
TEMPO 1710/1716 27018G30KT 6000 -SHRAGS -SHSN BKN020TCU
BECMG 1716/1718 30009KT CAVOK
TEMPO 1802/1807 4000 BR SCT004
ATIS : +352 4798 27300
Météo : +352 4798 27010 / 27050
Pas de NOTAMs connus pour ce terrain.



MET'MAP, la Météo Aéronautique d'un coup d'oeil ! - Copyright ORBIFLY Décembre 2007 - Disclaimer

ORBIFLY MET'MAP TEAM :

Programmation & Développement : Alexandra Zaïnal
Conception & Développement : Baudouin d'Aumeries
Co-Programmation & Développement : Marc-Olivier Méhu
Soutien technique & logistique : Manuel Goepfert

Contact : metmap@orbifly.com




SOURCES & CREDITS :

   NOAA